createdAt,value
2019-05-05T00:00:17.703Z,3.25
2019-05-05T00:01:17.651Z,3.28
2019-05-05T00:02:17.590Z,3.22
2019-05-05T00:03:17.577Z,3.23
2019-05-05T00:04:17.473Z,3.21
2019-05-05T00:05:17.416Z,3.26
2019-05-05T00:06:17.399Z,3.21
2019-05-05T00:07:17.299Z,3.29
2019-05-05T00:08:17.238Z,3.36
2019-05-05T00:09:17.185Z,3.32
2019-05-05T00:10:17.126Z,3.32
2019-05-05T00:11:17.116Z,3.28
2019-05-05T00:12:17.011Z,3.25
2019-05-05T00:13:16.951Z,3.28
2019-05-05T00:14:16.894Z,3.44
2019-05-05T00:15:16.839Z,3.29
2019-05-05T00:16:16.814Z,3.26
2019-05-05T00:17:16.720Z,3.36
2019-05-05T00:18:16.660Z,3.36
2019-05-05T00:19:29.772Z,3.37
2019-05-05T00:20:16.580Z,3.41
2019-05-05T00:21:16.512Z,3.44
2019-05-05T00:22:16.428Z,3.41
2019-05-05T00:23:16.373Z,3.40
2019-05-05T00:24:16.313Z,3.41
2019-05-05T00:25:16.289Z,3.29
2019-05-05T00:26:16.233Z,3.36
2019-05-05T00:27:16.174Z,3.32
2019-05-05T00:28:16.084Z,3.40
2019-05-05T00:29:16.024Z,3.28
2019-05-05T00:30:15.969Z,3.25
2019-05-05T00:31:15.913Z,3.34
2019-05-05T00:32:15.888Z,3.26
2019-05-05T00:33:15.798Z,3.28
2019-05-05T00:34:15.737Z,3.34
2019-05-05T00:35:15.713Z,3.31
2019-05-05T00:36:15.623Z,3.32
2019-05-05T00:37:15.562Z,3.25
2019-05-05T00:38:15.535Z,3.26
2019-05-05T00:39:15.448Z,3.31
2019-05-05T00:40:15.390Z,3.31
2019-05-05T00:41:15.335Z,3.32
2019-05-05T00:42:15.559Z,3.26
2019-05-05T00:43:15.245Z,3.29
2019-05-05T00:44:15.460Z,3.34
2019-05-05T00:45:15.102Z,3.34
2019-05-05T00:46:16.498Z,3.22
2019-05-05T00:47:14.983Z,3.25
2019-05-05T00:48:15.409Z,3.28
2019-05-05T00:49:14.871Z,3.32
2019-05-05T00:50:14.844Z,3.26
2019-05-05T00:51:15.152Z,3.23
2019-05-05T00:52:14.697Z,3.21
2019-05-05T00:53:14.760Z,3.23
2019-05-05T00:54:14.946Z,3.26
2019-05-05T00:55:15.118Z,3.14
2019-05-05T00:56:14.565Z,3.16
2019-05-05T00:57:14.974Z,3.07
2019-05-05T00:58:14.407Z,3.18
2019-05-05T00:59:14.735Z,3.05
2019-05-05T01:00:15.207Z,3.10
2019-05-05T01:01:14.479Z,3.07
2019-05-05T01:02:15.049Z,3.04
2019-05-05T01:03:15.314Z,2.93
2019-05-05T01:04:14.517Z,2.98
2019-05-05T01:05:14.914Z,2.93
2019-05-05T01:06:15.101Z,2.93
2019-05-05T01:07:14.369Z,2.86
2019-05-05T01:08:14.300Z,2.86
2019-05-05T01:09:14.864Z,2.83
2019-05-05T01:10:14.267Z,2.77
2019-05-05T01:11:14.478Z,2.83
2019-05-05T01:12:14.923Z,2.79
2019-05-05T01:13:15.182Z,2.82
2019-05-05T01:14:14.449Z,2.71
2019-05-05T01:15:14.986Z,2.74
2019-05-05T01:16:15.170Z,2.71
2019-05-05T01:17:14.725Z,2.60
2019-05-05T01:18:15.106Z,2.62
2019-05-05T01:19:14.958Z,2.60
2019-05-05T01:20:14.620Z,2.56
2019-05-05T01:21:14.927Z,2.56
2019-05-05T01:22:14.413Z,2.60
2019-05-05T01:23:14.915Z,2.54
2019-05-05T01:24:14.404Z,2.60
2019-05-05T01:25:14.743Z,2.54
2019-05-05T01:26:14.366Z,2.60
2019-05-05T01:27:14.617Z,2.54
2019-05-05T01:28:14.310Z,2.64
2019-05-05T01:29:14.563Z,2.68
2019-05-05T01:30:12.532Z,2.65
2019-05-05T01:31:14.549Z,2.68
2019-05-05T01:32:12.372Z,2.67
2019-05-05T01:33:14.443Z,2.65
2019-05-05T01:34:12.256Z,2.74
2019-05-05T01:35:14.326Z,2.68
2019-05-05T01:36:12.138Z,2.77
2019-05-05T01:37:12.081Z,2.72
2019-05-05T01:38:14.070Z,2.80
2019-05-05T01:39:11.965Z,2.80
2019-05-05T01:40:13.720Z,2.74
2019-05-05T01:41:11.851Z,2.80
2019-05-05T01:42:11.790Z,2.75
2019-05-05T01:43:11.734Z,2.83
2019-05-05T01:44:11.705Z,2.83
2019-05-05T01:45:11.617Z,2.89
2019-05-05T01:46:11.558Z,2.77
2019-05-05T01:47:11.499Z,2.93
2019-05-05T01:48:11.439Z,2.83
2019-05-05T01:49:11.413Z,2.89
2019-05-05T01:50:20.448Z,2.85
2019-05-05T01:51:11.269Z,2.85
2019-05-05T01:52:11.211Z,2.83
2019-05-05T01:53:11.148Z,2.89
2019-05-05T01:54:11.136Z,2.89
2019-05-05T01:55:11.035Z,2.87
2019-05-05T01:56:10.974Z,2.98
2019-05-05T01:57:10.921Z,2.95
2019-05-05T01:58:10.863Z,2.89
2019-05-05T01:59:10.835Z,2.93
2019-05-05T02:00:10.744Z,2.86
2019-05-05T02:01:10.684Z,2.93
2019-05-05T02:02:10.626Z,3.03
2019-05-05T02:03:10.599Z,2.98
2019-05-05T02:04:10.511Z,2.98
2019-05-05T02:05:10.485Z,3.00
2019-05-05T02:06:10.394Z,3.00
2019-05-05T02:07:10.337Z,2.87
2019-05-05T02:08:10.279Z,2.92
2019-05-05T02:09:10.250Z,2.87
2019-05-05T02:10:10.160Z,2.97
2019-05-05T02:11:10.107Z,2.98
2019-05-05T02:12:10.043Z,3.01
2019-05-05T02:13:09.987Z,2.97
2019-05-05T02:14:09.962Z,3.03
2019-05-05T02:15:09.869Z,2.98
2019-05-05T02:16:09.811Z,2.87
2019-05-05T02:17:09.754Z,3.00
2019-05-05T02:18:09.695Z,2.97
2019-05-05T02:19:09.679Z,2.92
2019-05-05T02:20:09.581Z,3.00
2019-05-05T02:21:09.521Z,2.95
2019-05-05T02:22:09.466Z,2.98
2019-05-05T02:23:09.407Z,2.93
2019-05-05T02:24:09.389Z,2.87
2019-05-05T02:25:09.289Z,2.92
2019-05-05T02:26:09.230Z,2.87
2019-05-05T02:27:09.192Z,2.97
2019-05-05T02:28:09.117Z,2.90
2019-05-05T02:29:09.097Z,2.93
2019-05-05T02:30:09.034Z,2.89
2019-05-05T02:31:08.944Z,2.89
2019-05-05T02:32:08.879Z,2.85
2019-05-05T02:33:08.824Z,2.86
2019-05-05T02:34:08.765Z,2.89
2019-05-05T02:35:08.738Z,2.85
2019-05-05T02:36:08.678Z,2.92
2019-05-05T02:37:08.592Z,2.83
2019-05-05T02:38:08.531Z,2.85
2019-05-05T02:39:08.472Z,2.85
2019-05-05T02:40:08.436Z,2.82
2019-05-05T02:41:08.388Z,2.77
2019-05-05T02:42:08.331Z,2.72
2019-05-05T02:43:08.261Z,2.71
2019-05-05T02:44:08.186Z,2.69
2019-05-05T02:45:08.130Z,2.72
2019-05-05T02:46:08.069Z,2.54
2019-05-05T02:47:08.045Z,2.62
2019-05-05T02:48:07.951Z,2.64
2019-05-05T02:49:07.895Z,2.64
2019-05-05T02:50:07.837Z,2.56
2019-05-05T02:51:07.804Z,2.44
2019-05-05T02:52:07.717Z,2.43
2019-05-05T02:53:07.659Z,2.43
2019-05-05T02:54:07.599Z,2.42
2019-05-05T02:55:07.581Z,2.42
2019-05-05T02:56:07.515Z,2.35
2019-05-05T02:57:07.460Z,2.33
2019-05-05T02:58:07.367Z,2.33
2019-05-05T02:59:07.310Z,2.26
2019-05-05T03:00:07.249Z,2.28
2019-05-05T03:01:07.191Z,2.29
2019-05-05T03:02:07.174Z,2.22
2019-05-05T03:03:07.076Z,2.22
2019-05-05T03:04:07.017Z,2.22
2019-05-05T03:05:06.958Z,2.14
2019-05-05T03:06:06.899Z,2.15
2019-05-05T03:07:06.871Z,2.20
2019-05-05T03:08:06.782Z,2.14
2019-05-05T03:09:06.725Z,2.15
2019-05-05T03:10:06.666Z,2.14
2019-05-05T03:11:06.642Z,2.08
2019-05-05T03:12:06.554Z,2.15
2019-05-05T03:13:06.491Z,2.15
2019-05-05T03:14:06.440Z,2.13
2019-05-05T03:15:06.369Z,2.06
2019-05-05T03:16:06.355Z,2.02
2019-05-05T03:17:06.257Z,1.99
2019-05-05T03:18:06.192Z,1.97
2019-05-05T03:19:06.136Z,2.06
2019-05-05T03:20:06.084Z,2.04
2019-05-05T03:21:07.442Z,2.07
2019-05-05T03:22:05.961Z,1.99
2019-05-05T03:23:05.904Z,2.02
2019-05-05T03:24:05.845Z,2.04
2019-05-05T03:25:05.785Z,2.02
2019-05-05T03:26:05.758Z,2.06
2019-05-05T03:27:05.668Z,2.13
2019-05-05T03:28:05.626Z,2.15
2019-05-05T03:29:05.553Z,2.14
2019-05-05T03:30:05.509Z,2.11
2019-05-05T03:31:05.466Z,2.11
2019-05-05T03:32:05.858Z,2.15
2019-05-05T03:33:05.786Z,2.13
2019-05-05T03:34:06.284Z,2.22
2019-05-05T03:35:05.200Z,2.20
2019-05-05T03:36:05.147Z,2.24
2019-05-05T03:37:05.113Z,2.24
2019-05-05T03:38:05.072Z,2.29
2019-05-05T03:39:05.225Z,2.35
2019-05-05T03:40:04.906Z,2.31
2019-05-05T03:41:04.886Z,2.32
2019-05-05T03:42:04.788Z,2.26
2019-05-05T03:43:04.731Z,2.31
2019-05-05T03:44:04.913Z,2.33
2019-05-05T03:45:04.646Z,2.25
2019-05-05T03:46:04.556Z,2.33
2019-05-05T03:47:04.496Z,2.38
2019-05-05T03:48:04.665Z,2.31
2019-05-05T03:49:04.860Z,2.32
2019-05-05T03:50:04.470Z,2.33
2019-05-05T03:51:15.999Z,2.35
2019-05-05T03:52:04.845Z,2.39
2019-05-05T03:53:04.969Z,2.33
2019-05-05T03:54:04.433Z,2.46
2019-05-05T03:55:04.033Z,2.38
2019-05-05T03:56:04.012Z,2.38
2019-05-05T03:57:03.944Z,2.49
2019-05-05T03:58:04.163Z,2.46
2019-05-05T03:59:04.945Z,2.44
2019-05-05T04:00:04.428Z,2.44
2019-05-05T04:01:04.281Z,2.56
2019-05-05T04:02:03.995Z,2.50
2019-05-05T04:03:04.310Z,2.47
2019-05-05T04:04:03.502Z,2.47
2019-05-05T04:05:04.034Z,2.54
2019-05-05T04:06:04.403Z,2.57
2019-05-05T04:07:04.714Z,2.56
2019-05-05T04:08:03.914Z,2.60
2019-05-05T04:09:04.300Z,2.54
2019-05-05T04:10:03.754Z,2.60
2019-05-05T04:11:03.935Z,2.53
2019-05-05T04:12:04.421Z,2.61
2019-05-05T04:13:04.677Z,2.64
2019-05-05T04:14:03.674Z,2.53
2019-05-05T04:15:03.700Z,2.62
2019-05-05T04:16:04.066Z,2.60
2019-05-05T04:17:03.541Z,2.61
2019-05-05T04:18:04.018Z,2.57
2019-05-05T04:19:03.592Z,2.60
2019-05-05T04:20:03.835Z,2.61
2019-05-05T04:21:04.005Z,2.62
2019-05-05T04:22:04.248Z,2.57
2019-05-05T04:23:03.741Z,2.62
2019-05-05T04:24:04.055Z,2.62
2019-05-05T04:25:04.508Z,2.62
2019-05-05T04:26:03.854Z,2.62
2019-05-05T04:27:04.059Z,2.60
2019-05-05T04:28:04.219Z,2.60
2019-05-05T04:29:04.660Z,2.64
2019-05-05T04:30:03.880Z,2.60
2019-05-05T04:31:04.099Z,2.61
2019-05-05T04:32:01.869Z,2.61
2019-05-05T04:33:03.673Z,2.57
2019-05-05T04:34:01.782Z,2.68
2019-05-05T04:35:03.680Z,2.60
2019-05-05T04:36:03.765Z,2.68
2019-05-05T04:37:01.569Z,2.64
2019-05-05T04:38:01.510Z,2.57
2019-05-05T04:39:03.660Z,2.62
2019-05-05T04:40:01.392Z,2.64
2019-05-05T04:41:03.354Z,2.62
2019-05-05T04:42:01.275Z,2.57
2019-05-05T04:43:01.216Z,2.56
2019-05-05T04:44:01.191Z,2.62
2019-05-05T04:45:01.101Z,2.65
2019-05-05T04:46:01.045Z,2.62
2019-05-05T04:47:00.985Z,2.61
2019-05-05T04:48:00.959Z,2.57
2019-05-05T04:49:00.869Z,2.61
2019-05-05T04:50:00.838Z,2.61
2019-05-05T04:51:00.748Z,2.54
2019-05-05T04:52:00.690Z,2.65
2019-05-05T04:53:00.633Z,2.65
2019-05-05T04:54:00.619Z,2.60
2019-05-05T04:55:00.517Z,2.62
2019-05-05T04:56:00.457Z,2.50
2019-05-05T04:57:00.403Z,2.60
2019-05-05T04:58:00.340Z,2.60
2019-05-05T04:59:00.320Z,2.65
2019-05-05T05:00:00.223Z,2.71
2019-05-05T05:01:00.166Z,2.64
2019-05-05T05:02:00.106Z,2.71
2019-05-05T05:03:00.052Z,2.75
2019-05-05T05:04:00.024Z,2.75
2019-05-05T05:04:59.932Z,2.67
2019-05-05T05:05:59.872Z,2.75
2019-05-05T05:06:59.811Z,2.85
2019-05-05T05:07:59.756Z,2.77
2019-05-05T05:08:59.729Z,2.75
2019-05-05T05:09:59.672Z,2.80
2019-05-05T05:10:59.578Z,2.80
2019-05-05T05:11:59.521Z,2.75
2019-05-05T05:12:59.467Z,2.79
2019-05-05T05:13:59.427Z,2.80
2019-05-05T05:14:59.345Z,2.83
2019-05-05T05:15:59.326Z,2.83
2019-05-05T05:16:59.230Z,2.79
2019-05-05T05:17:59.170Z,2.79
2019-05-05T05:18:59.113Z,2.86
2019-05-05T05:19:59.057Z,2.79
2019-05-05T05:20:59.027Z,2.82
2019-05-05T05:22:01.997Z,2.82
2019-05-05T05:22:58.884Z,2.83
2019-05-05T05:23:58.822Z,2.74
2019-05-05T05:24:58.762Z,2.74
2019-05-05T05:25:58.742Z,2.86
2019-05-05T05:26:58.655Z,2.83
2019-05-05T05:27:58.590Z,2.83
2019-05-05T05:28:58.530Z,2.85
2019-05-05T05:29:58.472Z,2.80
2019-05-05T05:30:58.446Z,2.85
2019-05-05T05:31:58.362Z,2.80
2019-05-05T05:32:58.297Z,2.79
2019-05-05T05:33:58.278Z,2.83
2019-05-05T05:34:58.178Z,2.85
2019-05-05T05:35:58.121Z,2.87
2019-05-05T05:36:58.066Z,2.87
2019-05-05T05:37:58.005Z,2.86
2019-05-05T05:38:57.988Z,2.92
2019-05-05T05:39:57.900Z,2.98
2019-05-05T05:40:57.831Z,2.98
2019-05-05T05:41:57.772Z,2.97
2019-05-05T05:42:57.716Z,3.04
2019-05-05T05:43:57.689Z,3.03
2019-05-05T05:44:57.598Z,3.05
2019-05-05T05:45:57.571Z,3.13
2019-05-05T05:46:57.479Z,3.10
2019-05-05T05:47:57.426Z,3.16
2019-05-05T05:48:57.365Z,3.16
2019-05-05T05:49:57.310Z,3.22
2019-05-05T05:50:57.280Z,3.16
2019-05-05T05:51:57.191Z,3.23
2019-05-05T05:52:57.134Z,3.21
2019-05-05T05:53:57.077Z,3.22
2019-05-05T05:54:57.032Z,3.23
2019-05-05T05:55:57.000Z,3.25
2019-05-05T05:56:56.940Z,3.29
2019-05-05T05:57:56.841Z,3.34
2019-05-05T05:58:56.787Z,3.34
2019-05-05T05:59:56.725Z,3.36
2019-05-05T06:00:56.668Z,3.41
2019-05-05T06:02:08.943Z,3.40
2019-05-05T06:02:56.575Z,3.42
2019-05-05T06:03:56.501Z,3.50
2019-05-05T06:04:56.437Z,3.51
2019-05-05T06:05:56.374Z,3.55
2019-05-05T06:06:56.323Z,3.42
2019-05-05T06:07:56.296Z,3.55
2019-05-05T06:08:56.235Z,3.42
2019-05-05T06:09:56.182Z,3.58
2019-05-05T06:10:56.084Z,3.50
2019-05-05T06:11:56.030Z,3.60
2019-05-05T06:12:55.993Z,3.55
2019-05-05T06:13:55.919Z,3.55
2019-05-05T06:14:55.855Z,3.55
2019-05-05T06:15:55.797Z,3.56
2019-05-05T06:16:55.738Z,3.59
2019-05-05T06:17:55.738Z,3.58
2019-05-05T06:18:55.624Z,3.59
2019-05-05T06:19:55.569Z,3.59
2019-05-05T06:20:55.505Z,3.60
2019-05-05T06:21:55.481Z,3.66
2019-05-05T06:22:55.390Z,3.69
2019-05-05T06:23:55.368Z,3.65
2019-05-05T06:24:55.275Z,3.68
2019-05-05T06:25:55.382Z,3.65
2019-05-05T06:26:55.159Z,3.65
2019-05-05T06:27:55.140Z,3.62
2019-05-05T06:28:55.045Z,3.65
2019-05-05T06:29:54.985Z,3.76
2019-05-05T06:30:54.968Z,3.80
2019-05-05T06:31:54.888Z,3.81
2019-05-05T06:32:54.856Z,3.76
2019-05-05T06:33:54.753Z,3.81
2019-05-05T06:34:54.699Z,3.77
2019-05-05T06:35:55.572Z,3.81
2019-05-05T06:36:54.582Z,3.91
2019-05-05T06:37:54.852Z,3.88
2019-05-05T06:38:54.470Z,3.95
2019-05-05T06:39:54.534Z,3.91
2019-05-05T06:40:54.348Z,3.94
2019-05-05T06:41:54.290Z,3.92
2019-05-05T06:42:54.266Z,3.98
2019-05-05T06:43:54.339Z,3.98
2019-05-05T06:44:54.118Z,3.94
2019-05-05T06:45:54.058Z,3.96
2019-05-05T06:46:54.023Z,3.99
2019-05-05T06:47:53.945Z,4.04
2019-05-05T06:48:53.969Z,4.06
2019-05-05T06:49:54.255Z,4.08
2019-05-05T06:50:54.431Z,4.16
2019-05-05T06:51:54.696Z,4.12
2019-05-05T06:52:53.761Z,4.20
2019-05-05T06:53:54.079Z,4.24
2019-05-05T06:54:54.280Z,4.26
2019-05-05T06:55:54.286Z,4.19
2019-05-05T06:56:53.938Z,4.23
2019-05-05T06:57:53.921Z,4.28
2019-05-05T06:58:54.052Z,4.22
2019-05-05T06:59:54.395Z,4.31
2019-05-05T07:00:54.254Z,4.32
2019-05-05T07:01:53.686Z,4.24
2019-05-05T07:02:54.075Z,4.31
2019-05-05T07:03:54.180Z,4.35
2019-05-05T07:04:54.680Z,4.31
2019-05-05T07:05:53.906Z,4.31
2019-05-05T07:06:56.721Z,4.31
2019-05-05T07:07:53.733Z,4.31
2019-05-05T07:08:54.595Z,4.41
2019-05-05T07:09:54.280Z,4.35
2019-05-05T07:10:54.757Z,4.42
2019-05-05T07:11:54.133Z,4.49
2019-05-05T07:12:54.380Z,4.58
2019-05-05T07:13:53.703Z,4.58
2019-05-05T07:14:53.843Z,4.66
2019-05-05T07:15:54.249Z,4.66
2019-05-05T07:16:54.360Z,4.68
2019-05-05T07:17:53.587Z,4.82
2019-05-05T07:18:53.973Z,4.87
2019-05-05T07:19:54.197Z,4.92
2019-05-05T07:20:52.047Z,4.87
2019-05-05T07:21:53.812Z,5.05
2019-05-05T07:22:59.726Z,5.11
2019-05-05T07:23:53.802Z,5.10
2019-05-05T07:24:54.024Z,5.04
2019-05-05T07:25:51.758Z,5.07
2019-05-05T07:26:53.946Z,5.28
2019-05-05T07:27:51.675Z,5.28
2019-05-05T07:28:51.586Z,5.32
2019-05-05T07:29:51.571Z,5.41
2019-05-05T07:30:51.584Z,5.48
2019-05-05T07:31:51.447Z,5.50
2019-05-05T07:32:53.600Z,5.51
2019-05-05T07:33:51.338Z,5.57
2019-05-05T07:34:51.243Z,5.62
2019-05-05T07:35:56.737Z,5.57
2019-05-05T07:36:51.150Z,5.56
2019-05-05T07:37:51.073Z,5.53
2019-05-05T07:38:51.135Z,5.51
2019-05-05T07:39:50.963Z,5.48
2019-05-05T07:40:50.907Z,5.44
2019-05-05T07:41:50.849Z,5.41
2019-05-05T07:42:50.790Z,5.44
2019-05-05T07:43:50.765Z,5.44
2019-05-05T07:44:50.681Z,5.61
2019-05-05T07:45:50.624Z,5.56
2019-05-05T07:46:50.564Z,5.69
2019-05-05T07:47:50.541Z,5.73
2019-05-05T07:48:50.486Z,5.82
2019-05-05T07:49:50.394Z,5.90
2019-05-05T07:51:01.238Z,6.01
2019-05-05T07:51:50.309Z,6.14
2019-05-05T07:52:50.258Z,6.22
2019-05-05T07:53:50.168Z,6.24
2019-05-05T07:54:50.114Z,6.49
2019-05-05T07:55:50.097Z,6.62
2019-05-05T07:56:49.999Z,6.70
2019-05-05T07:57:49.943Z,6.88
2019-05-05T07:58:49.891Z,7.07
2019-05-05T07:59:49.858Z,7.17
2019-05-05T08:00:49.813Z,7.38
2019-05-05T08:01:49.721Z,7.79
2019-05-05T08:02:49.700Z,8.06
2019-05-05T08:03:49.607Z,8.64
2019-05-05T08:04:49.559Z,9.03
2019-05-05T08:05:49.498Z,9.55
2019-05-05T08:06:49.442Z,9.72
2019-05-05T08:07:49.417Z,9.86
2019-05-05T08:08:49.330Z,9.98
2019-05-05T08:09:49.283Z,10.05
2019-05-05T08:10:49.217Z,10.23
2019-05-05T08:11:49.164Z,10.51
2019-05-05T08:12:49.143Z,10.71
2019-05-05T08:13:49.055Z,10.59
2019-05-05T08:14:49.000Z,10.22
2019-05-05T08:15:59.128Z,9.95
2019-05-05T08:16:48.891Z,9.72
2019-05-05T08:17:48.880Z,9.50
2019-05-05T08:18:48.780Z,9.36
2019-05-05T08:19:48.730Z,9.34
2019-05-05T08:20:48.670Z,9.72
2019-05-05T08:21:48.624Z,10.04
2019-05-05T08:22:48.608Z,10.22
2019-05-05T08:23:48.508Z,10.13
2019-05-05T08:24:48.455Z,10.12
2019-05-05T08:25:48.552Z,10.20
2019-05-05T08:26:48.406Z,9.99
2019-05-05T08:27:48.335Z,9.80
2019-05-05T08:28:48.239Z,9.62
2019-05-05T08:29:48.180Z,9.36
2019-05-05T08:30:48.124Z,9.18
2019-05-05T08:31:48.072Z,8.97
2019-05-05T08:32:48.055Z,8.69
2019-05-05T08:33:47.959Z,8.81
2019-05-05T08:34:57.380Z,9.16
2019-05-05T08:35:47.859Z,9.56
2019-05-05T08:36:47.798Z,9.80
2019-05-05T08:37:47.746Z,10.30
2019-05-05T08:38:47.690Z,11.22
2019-05-05T08:39:47.669Z,11.45
2019-05-05T08:40:47.619Z,12.07
2019-05-05T08:41:47.549Z,12.31
2019-05-05T08:42:47.477Z,11.90
2019-05-05T08:43:47.423Z,12.03
2019-05-05T08:44:47.402Z,13.12
2019-05-05T08:45:47.318Z,13.77
2019-05-05T08:46:47.297Z,15.47
2019-05-05T08:47:47.271Z,16.47
2019-05-05T08:48:47.169Z,15.35
2019-05-05T08:49:47.141Z,14.53
2019-05-05T08:50:47.089Z,13.81
2019-05-05T08:51:47.007Z,13.19
2019-05-05T08:52:46.956Z,12.78
2019-05-05T08:53:48.326Z,12.40
2019-05-05T08:54:46.851Z,12.24
2019-05-05T08:55:47.216Z,12.13
2019-05-05T08:56:46.751Z,12.13
2019-05-05T08:57:46.704Z,12.42
2019-05-05T08:58:49.687Z,12.78
2019-05-05T08:59:46.595Z,12.70
2019-05-05T09:00:46.544Z,12.61
2019-05-05T09:01:46.492Z,12.50
2019-05-05T09:02:46.442Z,12.35
2019-05-05T09:03:46.419Z,12.27
2019-05-05T09:04:46.337Z,12.13
2019-05-05T09:05:46.286Z,12.03
2019-05-05T09:06:46.235Z,12.17
2019-05-05T09:07:46.215Z,12.37
2019-05-05T09:08:46.130Z,12.64
2019-05-05T09:09:46.081Z,12.90
2019-05-05T09:10:46.031Z,12.94
2019-05-05T09:11:45.976Z,13.19
2019-05-05T09:12:45.957Z,13.20
2019-05-05T09:13:45.873Z,13.30
2019-05-05T09:14:45.861Z,13.47
2019-05-05T09:15:45.773Z,13.50
2019-05-05T09:16:45.720Z,13.83
2019-05-05T09:17:45.670Z,14.04
2019-05-05T09:18:45.628Z,14.14
2019-05-05T09:19:45.597Z,14.43
2019-05-05T09:20:45.518Z,14.23
2019-05-05T09:21:45.465Z,14.37
2019-05-05T09:22:46.101Z,14.40
2019-05-05T09:23:58.961Z,14.53
2019-05-05T09:24:45.343Z,14.63
2019-05-05T09:25:45.276Z,14.79
2019-05-05T09:26:45.243Z,14.82
2019-05-05T09:27:45.158Z,15.00
2019-05-05T09:28:45.112Z,15.06
2019-05-05T09:29:45.099Z,15.06
2019-05-05T09:30:45.047Z,15.14
2019-05-05T09:31:45.174Z,15.21
2019-05-05T09:32:44.912Z,15.33
2019-05-05T09:33:44.861Z,14.88
2019-05-05T09:34:44.842Z,14.94
2019-05-05T09:35:44.793Z,15.19
2019-05-05T09:36:44.719Z,15.22
2019-05-05T09:37:44.663Z,15.51
2019-05-05T09:38:45.093Z,15.76
2019-05-05T09:39:44.602Z,16.05
2019-05-05T09:40:44.519Z,16.23
2019-05-05T09:41:44.707Z,16.38
2019-05-05T09:42:44.443Z,16.69
2019-05-05T09:43:44.713Z,16.87
2019-05-05T09:44:45.149Z,16.31
2019-05-05T09:45:44.382Z,15.64
2019-05-05T09:46:44.717Z,15.67
2019-05-05T09:47:44.976Z,15.80
2019-05-05T09:48:44.183Z,16.10
2019-05-05T09:49:44.689Z,16.39
2019-05-05T09:50:44.019Z,16.51
2019-05-05T09:51:45.630Z,16.76
2019-05-05T09:52:44.393Z,16.87
2019-05-05T09:53:44.812Z,16.91
2019-05-05T09:54:44.085Z,17.08
2019-05-05T09:55:44.402Z,17.06
2019-05-05T09:56:44.435Z,17.16
2019-05-05T09:57:43.947Z,17.30
2019-05-05T09:58:44.111Z,17.22
2019-05-05T09:59:44.139Z,17.30
2019-05-05T10:00:44.162Z,17.19
2019-05-05T10:01:44.491Z,16.96
2019-05-05T10:02:44.197Z,16.56
2019-05-05T10:03:44.707Z,16.29
2019-05-05T10:04:44.135Z,16.02
2019-05-05T10:05:43.307Z,15.79
2019-05-05T10:06:47.344Z,15.65
2019-05-05T10:07:44.083Z,15.29
2019-05-05T10:08:44.603Z,15.10
2019-05-05T10:09:43.761Z,15.24
2019-05-05T10:10:44.261Z,15.42
2019-05-05T10:11:44.917Z,15.47
2019-05-05T10:12:44.552Z,15.49
2019-05-05T10:13:44.225Z,15.40
2019-05-05T10:14:44.901Z,15.37
2019-05-05T10:15:44.300Z,15.36
2019-05-05T10:16:42.777Z,15.19
2019-05-05T10:17:42.764Z,14.96
2019-05-05T10:18:44.664Z,14.78
2019-05-05T10:19:44.014Z,14.51
2019-05-05T10:20:42.593Z,14.79
2019-05-05T10:21:44.446Z,14.79
2019-05-05T10:22:43.815Z,14.92
2019-05-05T10:23:43.586Z,15.11
2019-05-05T10:24:44.236Z,15.43
2019-05-05T10:25:44.531Z,15.46
2019-05-05T10:26:43.819Z,15.14
2019-05-05T10:27:45.467Z,14.97
2019-05-05T10:28:44.358Z,14.82
2019-05-05T10:29:44.079Z,14.78
2019-05-05T10:30:42.099Z,14.62
2019-05-05T10:31:43.692Z,14.47
2019-05-05T10:32:43.452Z,14.35
2019-05-05T10:33:41.952Z,14.04
2019-05-05T10:34:43.817Z,13.62
2019-05-05T10:35:43.760Z,13.41
2019-05-05T10:36:41.811Z,13.56
2019-05-05T10:37:43.713Z,13.74
2019-05-05T10:38:41.707Z,13.95
2019-05-05T10:39:43.886Z,14.48
2019-05-05T10:40:41.653Z,14.84
2019-05-05T10:41:41.568Z,15.14
2019-05-05T10:42:41.513Z,15.64
2019-05-05T10:43:43.614Z,15.92
2019-05-05T10:44:41.417Z,16.28
2019-05-05T10:45:41.398Z,16.54
2019-05-05T10:46:41.356Z,16.90
2019-05-05T10:47:41.271Z,17.04
2019-05-05T10:48:41.228Z,17.26
2019-05-05T10:49:41.173Z,17.45
2019-05-05T10:50:41.132Z,17.54
2019-05-05T10:51:41.114Z,17.78
2019-05-05T10:52:41.037Z,17.82
2019-05-05T10:53:41.018Z,17.74
2019-05-05T10:54:44.585Z,17.39
2019-05-05T10:55:40.950Z,17.14
2019-05-05T10:56:40.882Z,16.93
2019-05-05T10:57:40.792Z,16.54
2019-05-05T10:58:40.796Z,16.32
2019-05-05T10:59:40.701Z,15.98
2019-05-05T11:00:40.653Z,15.75
2019-05-05T11:01:40.637Z,15.49
2019-05-05T11:02:40.557Z,15.28
2019-05-05T11:03:40.512Z,14.97
2019-05-05T11:04:40.462Z,14.84
2019-05-05T11:05:40.413Z,14.58
2019-05-05T11:06:40.404Z,14.37
2019-05-05T11:07:40.318Z,14.35
2019-05-05T11:08:40.272Z,14.54
2019-05-05T11:09:40.221Z,14.89
2019-05-05T11:10:40.173Z,14.81
2019-05-05T11:11:40.161Z,14.70
2019-05-05T11:12:40.081Z,14.68
2019-05-05T11:13:42.743Z,14.41
2019-05-05T11:14:39.981Z,14.26
2019-05-05T11:15:39.977Z,14.43
2019-05-05T11:16:39.889Z,14.66
2019-05-05T11:17:39.836Z,14.77
2019-05-05T11:18:39.789Z,14.88
2019-05-05T11:19:39.742Z,14.91
2019-05-05T11:20:39.724Z,14.92
2019-05-05T11:21:39.644Z,14.94
2019-05-05T11:22:39.863Z,15.02
2019-05-05T11:23:39.549Z,15.18
2019-05-05T11:24:39.500Z,15.42
2019-05-05T11:25:39.500Z,15.59
2019-05-05T11:26:39.406Z,15.92
2019-05-05T11:27:39.357Z,16.12
2019-05-05T11:28:39.317Z,16.13
2019-05-05T11:29:39.260Z,16.13
2019-05-05T11:30:39.247Z,16.29
2019-05-05T11:31:39.198Z,16.41
2019-05-05T11:32:39.118Z,16.28
2019-05-05T11:33:39.068Z,15.51
2019-05-05T11:34:39.023Z,15.02
2019-05-05T11:35:39.013Z,15.17
2019-05-05T11:36:38.956Z,15.10
2019-05-05T11:37:38.880Z,15.25
2019-05-05T11:38:41.457Z,15.51
2019-05-05T11:39:38.785Z,15.58
2019-05-05T11:40:38.735Z,15.91
2019-05-05T11:41:38.689Z,15.98
2019-05-05T11:42:38.697Z,15.95
2019-05-05T11:43:38.633Z,15.91
2019-05-05T11:44:38.547Z,15.62
2019-05-05T11:45:38.496Z,15.58
2019-05-05T11:46:38.447Z,15.47
2019-05-05T11:47:38.449Z,15.27
2019-05-05T11:48:38.358Z,15.09
2019-05-05T11:49:38.351Z,15.06
2019-05-05T11:50:39.085Z,14.82
2019-05-05T11:51:38.209Z,14.68
2019-05-05T11:52:38.161Z,14.60
2019-05-05T11:53:38.114Z,14.85
2019-05-05T11:54:38.262Z,15.03
2019-05-05T11:55:38.020Z,15.35
2019-05-05T11:56:37.970Z,15.68
2019-05-05T11:57:37.925Z,15.57
2019-05-05T11:58:37.874Z,15.49
2019-05-05T11:59:37.863Z,15.37
2019-05-05T12:00:38.690Z,15.43
2019-05-05T12:01:37.764Z,15.24
2019-05-05T12:02:37.681Z,15.06
2019-05-05T12:03:37.942Z,14.96
2019-05-05T12:04:37.628Z,14.91
2019-05-05T12:05:37.537Z,14.77
2019-05-05T12:06:37.490Z,14.68
2019-05-05T12:07:37.444Z,14.62
2019-05-05T12:08:37.397Z,14.41
2019-05-05T12:09:37.382Z,14.50
2019-05-05T12:10:37.303Z,14.30
2019-05-05T12:11:37.251Z,14.30
2019-05-05T12:12:37.208Z,14.30
2019-05-05T12:13:37.185Z,14.11
2019-05-05T12:14:37.113Z,14.11
2019-05-05T12:15:37.059Z,14.11
2019-05-05T12:16:37.010Z,14.12
2019-05-05T12:17:36.998Z,14.12
2019-05-05T12:18:36.914Z,14.11
2019-05-05T12:19:36.865Z,13.99
2019-05-05T12:20:36.816Z,13.83
2019-05-05T12:21:36.765Z,13.81
2019-05-05T12:22:36.752Z,13.83
2019-05-05T12:23:36.683Z,13.89
2019-05-05T12:24:36.622Z,13.93
2019-05-05T12:25:36.612Z,14.04
2019-05-05T12:26:36.524Z,14.10
2019-05-05T12:27:36.472Z,14.29
2019-05-05T12:28:36.435Z,14.54
2019-05-05T12:29:36.377Z,14.70
2019-05-05T12:30:36.361Z,14.73
2019-05-05T12:31:36.281Z,14.85
2019-05-05T12:32:36.232Z,15.04
2019-05-05T12:33:36.184Z,15.39
2019-05-05T12:34:36.137Z,15.67
2019-05-05T12:35:36.119Z,15.58
2019-05-05T12:36:36.038Z,15.33
2019-05-05T12:37:35.990Z,14.94
2019-05-05T12:38:35.977Z,14.59
2019-05-05T12:39:35.935Z,14.58
2019-05-05T12:40:35.861Z,14.29
2019-05-05T12:41:35.803Z,14.28
2019-05-05T12:42:35.865Z,14.29
2019-05-05T12:43:35.725Z,14.20
2019-05-05T12:44:35.693Z,14.18
2019-05-05T12:45:35.603Z,14.04
2019-05-05T12:46:35.553Z,14.03
2019-05-05T12:47:35.506Z,13.77
2019-05-05T12:48:35.459Z,13.53
2019-05-05T12:49:35.441Z,13.39
2019-05-05T12:50:35.366Z,13.16
2019-05-05T12:51:35.312Z,13.15
2019-05-05T12:52:35.263Z,13.05
2019-05-05T12:53:35.213Z,12.97
2019-05-05T12:54:35.198Z,12.94
2019-05-05T12:55:41.422Z,12.93
2019-05-05T12:56:35.095Z,12.80
2019-05-05T12:57:35.023Z,12.68
2019-05-05T12:58:34.970Z,12.61
2019-05-05T12:59:34.922Z,12.64
2019-05-05T13:00:34.903Z,12.58
2019-05-05T13:01:34.821Z,12.60
2019-05-05T13:02:34.807Z,12.58
2019-05-05T13:03:34.760Z,12.57
2019-05-05T13:04:34.675Z,12.60
2019-05-05T13:05:34.671Z,12.47
2019-05-05T13:06:34.777Z,12.45
2019-05-05T13:07:34.527Z,12.35
2019-05-05T13:08:34.478Z,12.28